sensor_id;sensor_type;location;lat;lon;timestamp;temperature;humidity
10468;DHT22;5281;48.878;9.394;2022-10-16T00:02:09;17.80;99.90
10468;DHT22;5281;48.878;9.394;2022-10-16T00:04:36;17.90;99.90
10468;DHT22;5281;48.878;9.394;2022-10-16T00:07:02;17.90;99.90
10468;DHT22;5281;48.878;9.394;2022-10-16T00:09:30;18.10;99.90
10468;DHT22;5281;48.878;9.394;2022-10-16T00:11:57;18.10;99.90
10468;DHT22;5281;48.878;9.394;2022-10-16T00:14:24;18.20;99.90
10468;DHT22;5281;48.878;9.394;2022-10-16T00:16:50;18.20;99.90
10468;DHT22;5281;48.878;9.394;2022-10-16T00:19:17;18.20;99.90
10468;DHT22;5281;48.878;9.394;2022-10-16T00:21:44;18.20;99.90
10468;DHT22;5281;48.878;9.394;2022-10-16T00:24:10;18.20;99.90
10468;DHT22;5281;48.878;9.394;2022-10-16T00:26:39;18.20;99.90
10468;DHT22;5281;48.878;9.394;2022-10-16T00:29:06;18.20;99.90
10468;DHT22;5281;48.878;9.394;2022-10-16T00:31:33;18.30;99.90
10468;DHT22;5281;48.878;9.394;2022-10-16T00:34:00;18.30;99.90
10468;DHT22;5281;48.878;9.394;2022-10-16T00:36:27;18.30;99.90
10468;DHT22;5281;48.878;9.394;2022-10-16T00:38:55;18.20;99.90
10468;DHT22;5281;48.878;9.394;2022-10-16T00:41:25;18.10;99.90
10468;DHT22;5281;48.878;9.394;2022-10-16T00:43:54;18.00;99.90
10468;DHT22;5281;48.878;9.394;2022-10-16T00:46:24;18.00;99.90
10468;DHT22;5281;48.878;9.394;2022-10-16T00:48:54;18.00;99.90
10468;DHT22;5281;48.878;9.394;2022-10-16T00:51:25;18.10;99.90
10468;DHT22;5281;48.878;9.394;2022-10-16T00:53:55;18.10;99.90
10468;DHT22;5281;48.878;9.394;2022-10-16T00:56:21;18.10;99.90
10468;DHT22;5281;48.878;9.394;2022-10-16T00:58:48;18.10;99.90
10468;DHT22;5281;48.878;9.394;2022-10-16T01:01:16;18.10;99.90
10468;DHT22;5281;48.878;9.394;2022-10-16T01:03:43;18.10;99.90
10468;DHT22;5281;48.878;9.394;2022-10-16T01:06:24;18.10;99.90
10468;DHT22;5281;48.878;9.394;2022-10-16T01:09:05;18.10;99.90
10468;DHT22;5281;48.878;9.394;2022-10-16T01:11:41;18.00;99.90
10468;DHT22;5281;48.878;9.394;2022-10-16T01:14:15;17.90;99.90
10468;DHT22;5281;48.878;9.394;2022-10-16T01:16:49;17.80;99.90
10468;DHT22;5281;48.878;9.394;2022-10-16T01:19:30;17.70;99.90
10468;DHT22;5281;48.878;9.394;2022-10-16T01:22:00;17.80;99.90
10468;DHT22;5281;48.878;9.394;2022-10-16T01:24:32;17.80;99.90
10468;DHT22;5281;48.878;9.394;2022-10-16T01:27:15;17.90;99.90
10468;DHT22;5281;48.878;9.394;2022-10-16T01:29:50;17.90;99.90
10468;DHT22;5281;48.878;9.394;2022-10-16T01:32:23;17.90;99.90
10468;DHT22;5281;48.878;9.394;2022-10-16T01:34:53;18.00;99.90
10468;DHT22;5281;48.878;9.394;2022-10-16T01:37:29;17.90;99.90
10468;DHT22;5281;48.878;9.394;2022-10-16T01:40:00;17.70;99.90
10468;DHT22;5281;48.878;9.394;2022-10-16T01:42:34;17.60;99.90
10468;DHT22;5281;48.878;9.394;2022-10-16T01:45:05;17.40;99.90
10468;DHT22;5281;48.878;9.394;2022-10-16T01:47:33;17.30;99.90
10468;DHT22;5281;48.878;9.394;2022-10-16T01:50:04;17.20;99.90
10468;DHT22;5281;48.878;9.394;2022-10-16T01:52:35;17.10;99.90
10468;DHT22;5281;48.878;9.394;2022-10-16T01:55:06;17.20;99.90
10468;DHT22;5281;48.878;9.394;2022-10-16T01:57:37;17.20;99.90
10468;DHT22;5281;48.878;9.394;2022-10-16T02:00:08;17.10;99.90
10468;DHT22;5281;48.878;9.394;2022-10-16T02:02:37;17.10;99.90
10468;DHT22;5281;48.878;9.394;2022-10-16T02:05:13;17.00;99.90
10468;DHT22;5281;48.878;9.394;2022-10-16T02:07:41;17.00;99.90
10468;DHT22;5281;48.878;9.394;2022-10-16T02:10:08;17.00;99.90
10468;DHT22;5281;48.878;9.394;2022-10-16T02:12:39;17.00;99.90
10468;DHT22;5281;48.878;9.394;2022-10-16T02:15:08;17.00;99.90
10468;DHT22;5281;48.878;9.394;2022-10-16T02:17:35;16.90;99.90
10468;DHT22;5281;48.878;9.394;2022-10-16T02:20:03;16.80;99.90
10468;DHT22;5281;48.878;9.394;2022-10-16T02:22:32;16.70;99.90
10468;DHT22;5281;48.878;9.394;2022-10-16T02:25:05;16.60;99.90
10468;DHT22;5281;48.878;9.394;2022-10-16T02:27:38;16.60;99.90
10468;DHT22;5281;48.878;9.394;2022-10-16T02:30:08;16.60;99.90
10468;DHT22;5281;48.878;9.394;2022-10-16T02:32:41;16.70;99.90
10468;DHT22;5281;48.878;9.394;2022-10-16T02:35:09;16.70;99.90
10468;DHT22;5281;48.878;9.394;2022-10-16T02:37:37;16.70;99.90
10468;DHT22;5281;48.878;9.394;2022-10-16T02:40:06;16.70;99.90
10468;DHT22;5281;48.878;9.394;2022-10-16T02:42:34;16.80;99.90
10468;DHT22;5281;48.878;9.394;2022-10-16T02:45:02;16.90;99.90
10468;DHT22;5281;48.878;9.394;2022-10-16T02:47:29;17.00;99.90
10468;DHT22;5281;48.878;9.394;2022-10-16T02:49:56;17.00;99.90
10468;DHT22;5281;48.878;9.394;2022-10-16T02:52:23;17.00;99.90
10468;DHT22;5281;48.878;9.394;2022-10-16T02:54:49;17.00;99.90
10468;DHT22;5281;48.878;9.394;2022-10-16T02:57:16;17.10;99.90
10468;DHT22;5281;48.878;9.394;2022-10-16T02:59:44;17.10;99.90
10468;DHT22;5281;48.878;9.394;2022-10-16T03:02:12;17.10;99.90
10468;DHT22;5281;48.878;9.394;2022-10-16T03:04:38;17.10;99.90
10468;DHT22;5281;48.878;9.394;2022-10-16T03:07:05;17.00;99.90
10468;DHT22;5281;48.878;9.394;2022-10-16T03:09:32;16.90;99.90
10468;DHT22;5281;48.878;9.394;2022-10-16T03:11:59;16.80;99.90
10468;DHT22;5281;48.878;9.394;2022-10-16T03:14:26;16.80;99.90
10468;DHT22;5281;48.878;9.394;2022-10-16T03:16:53;16.80;99.90
10468;DHT22;5281;48.878;9.394;2022-10-16T03:19:21;16.80;99.90
10468;DHT22;5281;48.878;9.394;2022-10-16T03:21:48;16.80;99.90
10468;DHT22;5281;48.878;9.394;2022-10-16T03:24:15;16.70;99.90
10468;DHT22;5281;48.878;9.394;2022-10-16T03:26:41;16.60;99.90
10468;DHT22;5281;48.878;9.394;2022-10-16T03:29:08;16.60;99.90
10468;DHT22;5281;48.878;9.394;2022-10-16T03:31:35;16.60;99.90
10468;DHT22;5281;48.878;9.394;2022-10-16T03:34:01;16.60;99.90
10468;DHT22;5281;48.878;9.394;2022-10-16T03:36:30;16.60;99.90
10468;DHT22;5281;48.878;9.394;2022-10-16T03:38:57;16.70;99.90
10468;DHT22;5281;48.878;9.394;2022-10-16T03:41:23;16.70;99.90
10468;DHT22;5281;48.878;9.394;2022-10-16T03:43:50;16.70;99.90
10468;DHT22;5281;48.878;9.394;2022-10-16T03:46:17;16.70;99.90
10468;DHT22;5281;48.878;9.394;2022-10-16T03:48:44;16.70;99.90
10468;DHT22;5281;48.878;9.394;2022-10-16T03:51:10;16.60;99.90
10468;DHT22;5281;48.878;9.394;2022-10-16T03:53:38;16.60;99.90
10468;DHT22;5281;48.878;9.394;2022-10-16T03:56:06;16.60;99.90
10468;DHT22;5281;48.878;9.394;2022-10-16T03:58:33;16.60;99.90
10468;DHT22;5281;48.878;9.394;2022-10-16T04:00:59;16.50;99.90
10468;DHT22;5281;48.878;9.394;2022-10-16T04:03:26;16.60;99.90
10468;DHT22;5281;48.878;9.394;2022-10-16T04:05:53;16.60;99.90
10468;DHT22;5281;48.878;9.394;2022-10-16T04:08:19;16.60;99.90
10468;DHT22;5281;48.878;9.394;2022-10-16T04:10:47;16.60;99.90
10468;DHT22;5281;48.878;9.394;2022-10-16T04:13:14;16.70;99.90
10468;DHT22;5281;48.878;9.394;2022-10-16T04:15:41;16.80;99.90
10468;DHT22;5281;48.878;9.394;2022-10-16T04:18:08;16.90;99.90
10468;DHT22;5281;48.878;9.394;2022-10-16T04:20:34;16.90;99.90
10468;DHT22;5281;48.878;9.394;2022-10-16T04:23:01;17.00;99.90
10468;DHT22;5281;48.878;9.394;2022-10-16T04:25:28;17.00;99.90
10468;DHT22;5281;48.878;9.394;2022-10-16T04:27:56;17.00;99.90
10468;DHT22;5281;48.878;9.394;2022-10-16T04:30:23;17.00;99.90
10468;DHT22;5281;48.878;9.394;2022-10-16T04:32:50;16.90;99.90
10468;DHT22;5281;48.878;9.394;2022-10-16T04:35:17;16.80;99.90
10468;DHT22;5281;48.878;9.394;2022-10-16T04:37:44;16.70;99.90
10468;DHT22;5281;48.878;9.394;2022-10-16T04:40:11;16.50;99.90
10468;DHT22;5281;48.878;9.394;2022-10-16T04:42:38;16.30;99.90
10468;DHT22;5281;48.878;9.394;2022-10-16T04:45:07;16.20;99.90
10468;DHT22;5281;48.878;9.394;2022-10-16T04:47:34;16.20;99.90
10468;DHT22;5281;48.878;9.394;2022-10-16T04:50:01;16.20;99.90
10468;DHT22;5281;48.878;9.394;2022-10-16T04:52:28;16.30;99.90
10468;DHT22;5281;48.878;9.394;2022-10-16T04:54:54;16.40;99.90
10468;DHT22;5281;48.878;9.394;2022-10-16T04:57:25;16.50;99.90
10468;DHT22;5281;48.878;9.394;2022-10-16T04:59:52;16.60;99.90
10468;DHT22;5281;48.878;9.394;2022-10-16T05:02:20;16.70;99.90
10468;DHT22;5281;48.878;9.394;2022-10-16T05:04:47;16.70;99.90
10468;DHT22;5281;48.878;9.394;2022-10-16T05:07:14;16.80;99.90
10468;DHT22;5281;48.878;9.394;2022-10-16T05:09:40;16.80;99.90
10468;DHT22;5281;48.878;9.394;2022-10-16T05:12:07;16.80;99.90
10468;DHT22;5281;48.878;9.394;2022-10-16T05:14:34;16.80;99.90
10468;DHT22;5281;48.878;9.394;2022-10-16T05:17:00;16.80;99.90
10468;DHT22;5281;48.878;9.394;2022-10-16T05:19:29;16.70;99.90
10468;DHT22;5281;48.878;9.394;2022-10-16T05:21:55;16.70;99.90
10468;DHT22;5281;48.878;9.394;2022-10-16T05:24:22;16.70;99.90
10468;DHT22;5281;48.878;9.394;2022-10-16T05:26:50;16.70;99.90
10468;DHT22;5281;48.878;9.394;2022-10-16T05:29:16;16.80;99.90
10468;DHT22;5281;48.878;9.394;2022-10-16T05:31:43;16.80;99.90
10468;DHT22;5281;48.878;9.394;2022-10-16T05:34:10;16.80;99.90
10468;DHT22;5281;48.878;9.394;2022-10-16T05:36:38;16.70;99.90
10468;DHT22;5281;48.878;9.394;2022-10-16T05:39:05;16.70;99.90
10468;DHT22;5281;48.878;9.394;2022-10-16T05:41:31;16.70;99.90
10468;DHT22;5281;48.878;9.394;2022-10-16T05:43:58;16.80;99.90
10468;DHT22;5281;48.878;9.394;2022-10-16T05:46:25;16.80;99.90
10468;DHT22;5281;48.878;9.394;2022-10-16T05:48:52;16.80;99.90
10468;DHT22;5281;48.878;9.394;2022-10-16T05:51:19;16.80;99.90
10468;DHT22;5281;48.878;9.394;2022-10-16T05:53:48;16.80;99.90
10468;DHT22;5281;48.878;9.394;2022-10-16T05:56:15;16.80;99.90
10468;DHT22;5281;48.878;9.394;2022-10-16T05:58:42;16.70;99.90
10468;DHT22;5281;48.878;9.394;2022-10-16T06:01:11;16.70;99.90
10468;DHT22;5281;48.878;9.394;2022-10-16T06:03:38;16.70;99.90
10468;DHT22;5281;48.878;9.394;2022-10-16T06:06:09;16.70;99.90
10468;DHT22;5281;48.878;9.394;2022-10-16T06:08:36;16.70;99.90
10468;DHT22;5281;48.878;9.394;2022-10-16T06:11:07;16.80;99.90
10468;DHT22;5281;48.878;9.394;2022-10-16T06:13:34;16.90;99.90
10468;DHT22;5281;48.878;9.394;2022-10-16T06:16:01;16.90;99.90
10468;DHT22;5281;48.878;9.394;2022-10-16T06:18:29;17.00;99.90
10468;DHT22;5281;48.878;9.394;2022-10-16T06:20:56;17.00;99.90
10468;DHT22;5281;48.878;9.394;2022-10-16T06:23:24;17.00;99.90
10468;DHT22;5281;48.878;9.394;2022-10-16T06:25:51;17.00;99.90
10468;DHT22;5281;48.878;9.394;2022-10-16T06:28:19;17.00;99.90
10468;DHT22;5281;48.878;9.394;2022-10-16T06:30:45;17.10;99.90
10468;DHT22;5281;48.878;9.394;2022-10-16T06:33:12;17.10;99.90
10468;DHT22;5281;48.878;9.394;2022-10-16T06:35:39;17.10;99.90
10468;DHT22;5281;48.878;9.394;2022-10-16T06:38:06;17.20;99.90
10468;DHT22;5281;48.878;9.394;2022-10-16T06:40:33;17.30;99.90
10468;DHT22;5281;48.878;9.394;2022-10-16T06:42:59;17.30;99.90
10468;DHT22;5281;48.878;9.394;2022-10-16T06:45:28;17.40;99.90
10468;DHT22;5281;48.878;9.394;2022-10-16T06:47:54;17.50;99.90
10468;DHT22;5281;48.878;9.394;2022-10-16T06:50:21;17.60;99.90
10468;DHT22;5281;48.878;9.394;2022-10-16T06:52:49;17.70;99.90
10468;DHT22;5281;48.878;9.394;2022-10-16T06:55:15;17.70;99.90
10468;DHT22;5281;48.878;9.394;2022-10-16T06:57:43;17.70;99.90
10468;DHT22;5281;48.878;9.394;2022-10-16T07:00:10;17.70;99.90
10468;DHT22;5281;48.878;9.394;2022-10-16T07:02:38;17.90;99.90
10468;DHT22;5281;48.878;9.394;2022-10-16T07:05:05;18.00;99.90
10468;DHT22;5281;48.878;9.394;2022-10-16T07:07:32;18.10;99.90
10468;DHT22;5281;48.878;9.394;2022-10-16T07:09:59;18.20;99.90
10468;DHT22;5281;48.878;9.394;2022-10-16T07:12:26;18.30;99.90
10468;DHT22;5281;48.878;9.394;2022-10-16T07:14:52;18.30;99.90
10468;DHT22;5281;48.878;9.394;2022-10-16T07:17:20;18.40;99.90
10468;DHT22;5281;48.878;9.394;2022-10-16T07:19:48;18.40;99.90
10468;DHT22;5281;48.878;9.394;2022-10-16T07:22:15;18.30;99.90
10468;DHT22;5281;48.878;9.394;2022-10-16T07:24:41;18.50;99.90
10468;DHT22;5281;48.878;9.394;2022-10-16T07:27:08;18.80;99.90
10468;DHT22;5281;48.878;9.394;2022-10-16T07:29:35;19.00;99.90
10468;DHT22;5281;48.878;9.394;2022-10-16T07:32:02;19.20;99.90
10468;DHT22;5281;48.878;9.394;2022-10-16T07:34:29;19.30;99.90
10468;DHT22;5281;48.878;9.394;2022-10-16T07:36:57;19.30;99.90
10468;DHT22;5281;48.878;9.394;2022-10-16T07:39:27;19.30;99.90
10468;DHT22;5281;48.878;9.394;2022-10-16T07:41:54;19.30;99.90
10468;DHT22;5281;48.878;9.394;2022-10-16T07:44:20;19.30;99.90
10468;DHT22;5281;48.878;9.394;2022-10-16T07:46:47;19.30;99.90
10468;DHT22;5281;48.878;9.394;2022-10-16T07:49:14;19.30;99.90
10468;DHT22;5281;48.878;9.394;2022-10-16T07:51:41;19.30;99.90
10468;DHT22;5281;48.878;9.394;2022-10-16T07:54:09;19.30;99.90
10468;DHT22;5281;48.878;9.394;2022-10-16T07:56:36;19.30;99.90
10468;DHT22;5281;48.878;9.394;2022-10-16T07:59:03;19.20;99.90
10468;DHT22;5281;48.878;9.394;2022-10-16T08:01:30;19.10;99.90
10468;DHT22;5281;48.878;9.394;2022-10-16T08:03:56;19.00;99.90
10468;DHT22;5281;48.878;9.394;2022-10-16T08:06:23;19.00;99.90
10468;DHT22;5281;48.878;9.394;2022-10-16T08:08:50;19.00;99.90
10468;DHT22;5281;48.878;9.394;2022-10-16T08:11:19;19.00;99.90
10468;DHT22;5281;48.878;9.394;2022-10-16T08:13:45;19.10;99.90
10468;DHT22;5281;48.878;9.394;2022-10-16T08:16:12;19.20;99.90
10468;DHT22;5281;48.878;9.394;2022-10-16T08:18:40;19.20;99.90
10468;DHT22;5281;48.878;9.394;2022-10-16T08:21:13;19.30;99.90
10468;DHT22;5281;48.878;9.394;2022-10-16T08:23:40;19.40;99.90
10468;DHT22;5281;48.878;9.394;2022-10-16T08:26:07;19.40;99.90
10468;DHT22;5281;48.878;9.394;2022-10-16T08:28:36;19.50;99.90
10468;DHT22;5281;48.878;9.394;2022-10-16T08:31:07;19.60;99.90
10468;DHT22;5281;48.878;9.394;2022-10-16T08:33:35;19.70;99.90
10468;DHT22;5281;48.878;9.394;2022-10-16T08:36:02;19.80;99.90
10468;DHT22;5281;48.878;9.394;2022-10-16T08:38:29;19.80;99.90
10468;DHT22;5281;48.878;9.394;2022-10-16T08:44:08;20.20;99.90
10468;DHT22;5281;48.878;9.394;2022-10-16T08:46:46;20.50;99.90
10468;DHT22;5281;48.878;9.394;2022-10-16T08:49:14;20.90;99.90
10468;DHT22;5281;48.878;9.394;2022-10-16T08:51:41;21.20;99.90
10468;DHT22;5281;48.878;9.394;2022-10-16T08:54:19;21.40;99.90
10468;DHT22;5281;48.878;9.394;2022-10-16T08:56:47;21.70;99.90
10468;DHT22;5281;48.878;9.394;2022-10-16T08:59:16;21.90;99.90
10468;DHT22;5281;48.878;9.394;2022-10-16T09:01:45;22.20;99.90
10468;DHT22;5281;48.878;9.394;2022-10-16T09:04:34;22.40;99.90
10468;DHT22;5281;48.878;9.394;2022-10-16T09:07:14;22.50;99.90
10468;DHT22;5281;48.878;9.394;2022-10-16T09:09:59;22.60;99.90
10468;DHT22;5281;48.878;9.394;2022-10-16T09:12:31;22.60;99.90
10468;DHT22;5281;48.878;9.394;2022-10-16T09:15:13;22.60;99.90
10468;DHT22;5281;48.878;9.394;2022-10-16T09:17:49;22.60;99.90
10468;DHT22;5281;48.878;9.394;2022-10-16T09:20:26;22.60;99.90
10468;DHT22;5281;48.878;9.394;2022-10-16T09:23:08;22.60;99.90
10468;DHT22;5281;48.878;9.394;2022-10-16T09:25:39;22.60;99.90
10468;DHT22;5281;48.878;9.394;2022-10-16T09:28:08;22.30;99.90
10468;DHT22;5281;48.878;9.394;2022-10-16T09:30:37;22.10;99.90
10468;DHT22;5281;48.878;9.394;2022-10-16T09:33:05;22.00;99.90
10468;DHT22;5281;48.878;9.394;2022-10-16T09:35:36;22.20;99.90
10468;DHT22;5281;48.878;9.394;2022-10-16T09:38:03;22.40;99.90
10468;DHT22;5281;48.878;9.394;2022-10-16T09:40:32;22.60;99.90
10468;DHT22;5281;48.878;9.394;2022-10-16T09:43:03;22.70;99.90
10468;DHT22;5281;48.878;9.394;2022-10-16T09:45:32;22.90;99.90
10468;DHT22;5281;48.878;9.394;2022-10-16T09:48:10;22.80;99.90
10468;DHT22;5281;48.878;9.394;2022-10-16T09:50:37;22.70;99.90
10468;DHT22;5281;48.878;9.394;2022-10-16T09:53:07;22.60;99.90
10468;DHT22;5281;48.878;9.394;2022-10-16T09:55:35;22.60;99.90
10468;DHT22;5281;48.878;9.394;2022-10-16T09:58:01;22.50;99.90
10468;DHT22;5281;48.878;9.394;2022-10-16T10:00:28;22.50;99.90
10468;DHT22;5281;48.878;9.394;2022-10-16T10:02:55;22.60;99.90
10468;DHT22;5281;48.878;9.394;2022-10-16T10:05:25;22.70;99.90
10468;DHT22;5281;48.878;9.394;2022-10-16T10:07:55;22.70;99.90
10468;DHT22;5281;48.878;9.394;2022-10-16T10:10:24;22.80;99.90
10468;DHT22;5281;48.878;9.394;2022-10-16T10:12:52;23.00;99.90
10468;DHT22;5281;48.878;9.394;2022-10-16T10:15:19;23.20;99.90
10468;DHT22;5281;48.878;9.394;2022-10-16T10:17:49;23.40;99.90
10468;DHT22;5281;48.878;9.394;2022-10-16T10:20:26;23.60;99.90
10468;DHT22;5281;48.878;9.394;2022-10-16T10:22:54;23.90;99.90
10468;DHT22;5281;48.878;9.394;2022-10-16T10:25:42;24.00;99.90
10468;DHT22;5281;48.878;9.394;2022-10-16T10:31:16;24.20;99.90
10468;DHT22;5281;48.878;9.394;2022-10-16T10:33:48;24.40;99.90
10468;DHT22;5281;48.878;9.394;2022-10-16T10:36:28;24.60;99.90
10468;DHT22;5281;48.878;9.394;2022-10-16T10:38:58;24.80;99.90
10468;DHT22;5281;48.878;9.394;2022-10-16T10:44:28;25.20;99.90
10468;DHT22;5281;48.878;9.394;2022-10-16T10:47:00;25.40;99.90
10468;DHT22;5281;48.878;9.394;2022-10-16T10:49:38;25.60;99.90
10468;DHT22;5281;48.878;9.394;2022-10-16T10:52:20;25.90;99.90
10468;DHT22;5281;48.878;9.394;2022-10-16T10:54:55;26.30;99.90
10468;DHT22;5281;48.878;9.394;2022-10-16T10:57:30;26.60;99.90
10468;DHT22;5281;48.878;9.394;2022-10-16T11:00:07;26.80;99.90
10468;DHT22;5281;48.878;9.394;2022-10-16T11:02:41;27.00;99.90
10468;DHT22;5281;48.878;9.394;2022-10-16T11:05:38;27.20;99.90
10468;DHT22;5281;48.878;9.394;2022-10-16T11:08:11;27.30;99.90
10468;DHT22;5281;48.878;9.394;2022-10-16T11:10:46;27.30;99.90
10468;DHT22;5281;48.878;9.394;2022-10-16T11:13:26;27.30;99.90
10468;DHT22;5281;48.878;9.394;2022-10-16T11:15:58;27.40;99.90
10468;DHT22;5281;48.878;9.394;2022-10-16T11:18:32;27.40;99.90
10468;DHT22;5281;48.878;9.394;2022-10-16T11:21:04;27.30;99.90
10468;DHT22;5281;48.878;9.394;2022-10-16T11:23:37;27.20;99.90
10468;DHT22;5281;48.878;9.394;2022-10-16T11:26:11;27.20;99.90
10468;DHT22;5281;48.878;9.394;2022-10-16T11:28:42;27.10;99.90
10468;DHT22;5281;48.878;9.394;2022-10-16T11:31:15;27.00;99.90
10468;DHT22;5281;48.878;9.394;2022-10-16T11:33:47;26.90;99.90
10468;DHT22;5281;48.878;9.394;2022-10-16T11:36:17;26.90;99.90
10468;DHT22;5281;48.878;9.394;2022-10-16T11:38:49;26.80;99.90
10468;DHT22;5281;48.878;9.394;2022-10-16T11:41:24;26.60;99.90
10468;DHT22;5281;48.878;9.394;2022-10-16T11:44:03;26.50;99.90
10468;DHT22;5281;48.878;9.394;2022-10-16T11:46:32;26.30;99.90
10468;DHT22;5281;48.878;9.394;2022-10-16T11:49:03;26.00;99.90
10468;DHT22;5281;48.878;9.394;2022-10-16T11:51:38;25.80;99.90
10468;DHT22;5281;48.878;9.394;2022-10-16T11:54:14;25.80;99.90
10468;DHT22;5281;48.878;9.394;2022-10-16T11:56:44;25.80;99.90
10468;DHT22;5281;48.878;9.394;2022-10-16T11:59:17;25.90;99.90
10468;DHT22;5281;48.878;9.394;2022-10-16T12:01:50;26.00;99.90
10468;DHT22;5281;48.878;9.394;2022-10-16T12:04:22;25.90;99.90
10468;DHT22;5281;48.878;9.394;2022-10-16T12:06:55;26.00;99.90
10468;DHT22;5281;48.878;9.394;2022-10-16T12:09:28;26.00;99.90
10468;DHT22;5281;48.878;9.394;2022-10-16T12:11:55;26.00;99.90
10468;DHT22;5281;48.878;9.394;2022-10-16T12:14:35;25.90;99.90
10468;DHT22;5281;48.878;9.394;2022-10-16T12:17:03;25.90;99.90
10468;DHT22;5281;48.878;9.394;2022-10-16T12:19:32;26.00;99.90
10468;DHT22;5281;48.878;9.394;2022-10-16T12:22:00;26.20;99.90
10468;DHT22;5281;48.878;9.394;2022-10-16T12:24:33;26.40;99.90
10468;DHT22;5281;48.878;9.394;2022-10-16T12:27:01;26.50;99.90
10468;DHT22;5281;48.878;9.394;2022-10-16T12:29:36;26.60;99.90
10468;DHT22;5281;48.878;9.394;2022-10-16T12:32:06;26.50;99.90
10468;DHT22;5281;48.878;9.394;2022-10-16T12:34:47;26.50;99.90
10468;DHT22;5281;48.878;9.394;2022-10-16T12:37:19;26.40;99.90
10468;DHT22;5281;48.878;9.394;2022-10-16T12:39:49;26.40;99.90
10468;DHT22;5281;48.878;9.394;2022-10-16T12:42:31;26.20;99.90
10468;DHT22;5281;48.878;9.394;2022-10-16T12:45:00;26.00;99.90
10468;DHT22;5281;48.878;9.394;2022-10-16T12:47:46;25.90;99.90
10468;DHT22;5281;48.878;9.394;2022-10-16T12:50:32;25.80;99.90
10468;DHT22;5281;48.878;9.394;2022-10-16T12:53:01;25.70;99.90
10468;DHT22;5281;48.878;9.394;2022-10-16T12:55:35;25.60;99.90
10468;DHT22;5281;48.878;9.394;2022-10-16T12:58:18;25.50;99.90
10468;DHT22;5281;48.878;9.394;2022-10-16T13:00:56;25.40;99.90
10468;DHT22;5281;48.878;9.394;2022-10-16T13:03:42;25.40;99.90
10468;DHT22;5281;48.878;9.394;2022-10-16T13:06:20;25.40;99.90
10468;DHT22;5281;48.878;9.394;2022-10-16T13:09:24;25.20;99.90
10468;DHT22;5281;48.878;9.394;2022-10-16T13:12:07;25.20;99.90
10468;DHT22;5281;48.878;9.394;2022-10-16T13:15:01;25.20;99.90
10468;DHT22;5281;48.878;9.394;2022-10-16T13:17:39;25.20;99.90
10468;DHT22;5281;48.878;9.394;2022-10-16T13:20:16;25.30;99.90
10468;DHT22;5281;48.878;9.394;2022-10-16T13:22:51;25.50;99.90
10468;DHT22;5281;48.878;9.394;2022-10-16T13:25:30;25.60;99.90
10468;DHT22;5281;48.878;9.394;2022-10-16T13:28:02;25.80;99.90
10468;DHT22;5281;48.878;9.394;2022-10-16T13:30:31;25.90;99.90
10468;DHT22;5281;48.878;9.394;2022-10-16T13:33:01;26.00;99.90
10468;DHT22;5281;48.878;9.394;2022-10-16T13:35:30;26.20;99.90
10468;DHT22;5281;48.878;9.394;2022-10-16T13:38:14;26.30;99.90
10468;DHT22;5281;48.878;9.394;2022-10-16T13:40:55;26.40;99.90
10468;DHT22;5281;48.878;9.394;2022-10-16T13:43:26;26.40;99.90
10468;DHT22;5281;48.878;9.394;2022-10-16T13:45:58;26.40;99.90
10468;DHT22;5281;48.878;9.394;2022-10-16T13:48:25;26.50;99.90
10468;DHT22;5281;48.878;9.394;2022-10-16T13:51:05;26.50;99.90
10468;DHT22;5281;48.878;9.394;2022-10-16T13:53:33;26.50;99.90
10468;DHT22;5281;48.878;9.394;2022-10-16T13:56:03;26.50;99.90
10468;DHT22;5281;48.878;9.394;2022-10-16T13:58:32;26.50;99.90
10468;DHT22;5281;48.878;9.394;2022-10-16T14:01:00;26.60;99.90
10468;DHT22;5281;48.878;9.394;2022-10-16T14:03:28;26.60;99.90
10468;DHT22;5281;48.878;9.394;2022-10-16T14:05:58;26.60;99.90
10468;DHT22;5281;48.878;9.394;2022-10-16T14:08:26;26.40;99.90
10468;DHT22;5281;48.878;9.394;2022-10-16T14:10:56;26.30;99.90
10468;DHT22;5281;48.878;9.394;2022-10-16T14:13:31;26.30;99.90
10468;DHT22;5281;48.878;9.394;2022-10-16T14:16:05;26.30;99.90
10468;DHT22;5281;48.878;9.394;2022-10-16T14:18:33;26.30;99.90
10468;DHT22;5281;48.878;9.394;2022-10-16T14:21:05;26.00;99.90
10468;DHT22;5281;48.878;9.394;2022-10-16T14:23:35;25.80;99.90
10468;DHT22;5281;48.878;9.394;2022-10-16T14:26:11;25.60;99.90
10468;DHT22;5281;48.878;9.394;2022-10-16T14:28:40;25.40;99.90
10468;DHT22;5281;48.878;9.394;2022-10-16T14:31:27;25.20;99.90
10468;DHT22;5281;48.878;9.394;2022-10-16T14:33:56;25.20;99.90
10468;DHT22;5281;48.878;9.394;2022-10-16T14:36:23;25.30;99.90
10468;DHT22;5281;48.878;9.394;2022-10-16T14:38:58;25.30;99.90
10468;DHT22;5281;48.878;9.394;2022-10-16T14:41:26;25.40;99.90
10468;DHT22;5281;48.878;9.394;2022-10-16T14:43:54;25.40;99.90
10468;DHT22;5281;48.878;9.394;2022-10-16T14:46:29;25.40;99.90
10468;DHT22;5281;48.878;9.394;2022-10-16T14:49:00;25.30;99.90
10468;DHT22;5281;48.878;9.394;2022-10-16T14:51:29;25.20;99.90
10468;DHT22;5281;48.878;9.394;2022-10-16T14:53:55;25.30;99.90
10468;DHT22;5281;48.878;9.394;2022-10-16T14:56:24;25.30;99.90
10468;DHT22;5281;48.878;9.394;2022-10-16T14:58:51;25.30;99.90
10468;DHT22;5281;48.878;9.394;2022-10-16T15:01:19;25.30;99.90
10468;DHT22;5281;48.878;9.394;2022-10-16T15:03:48;25.20;99.90
10468;DHT22;5281;48.878;9.394;2022-10-16T15:06:15;25.30;99.90
10468;DHT22;5281;48.878;9.394;2022-10-16T15:08:42;25.30;99.90
10468;DHT22;5281;48.878;9.394;2022-10-16T15:11:11;25.40;99.90
10468;DHT22;5281;48.878;9.394;2022-10-16T15:13:39;25.40;99.90
10468;DHT22;5281;48.878;9.394;2022-10-16T15:16:08;25.40;99.90
10468;DHT22;5281;48.878;9.394;2022-10-16T15:18:36;25.20;99.90
10468;DHT22;5281;48.878;9.394;2022-10-16T15:21:05;25.10;99.90
10468;DHT22;5281;48.878;9.394;2022-10-16T15:23:32;25.10;99.90
10468;DHT22;5281;48.878;9.394;2022-10-16T15:25:59;25.00;99.90
10468;DHT22;5281;48.878;9.394;2022-10-16T15:28:26;24.80;99.90
10468;DHT22;5281;48.878;9.394;2022-10-16T15:30:54;24.80;99.90
10468;DHT22;5281;48.878;9.394;2022-10-16T15:33:22;24.70;99.90
10468;DHT22;5281;48.878;9.394;2022-10-16T15:35:52;24.60;99.90
10468;DHT22;5281;48.878;9.394;2022-10-16T15:38:22;24.60;99.90
10468;DHT22;5281;48.878;9.394;2022-10-16T15:40:49;24.50;99.90
10468;DHT22;5281;48.878;9.394;2022-10-16T15:43:16;24.50;99.90
10468;DHT22;5281;48.878;9.394;2022-10-16T15:45:44;24.30;99.90
10468;DHT22;5281;48.878;9.394;2022-10-16T15:48:11;24.20;99.90
10468;DHT22;5281;48.878;9.394;2022-10-16T15:50:39;24.10;99.90
10468;DHT22;5281;48.878;9.394;2022-10-16T15:53:06;24.00;99.90
10468;DHT22;5281;48.878;9.394;2022-10-16T15:55:34;23.90;99.90
10468;DHT22;5281;48.878;9.394;2022-10-16T15:58:03;23.70;99.90
10468;DHT22;5281;48.878;9.394;2022-10-16T16:00:30;23.60;99.90
10468;DHT22;5281;48.878;9.394;2022-10-16T16:02:57;23.40;99.90
10468;DHT22;5281;48.878;9.394;2022-10-16T16:05:24;23.30;99.90
10468;DHT22;5281;48.878;9.394;2022-10-16T16:07:51;23.30;99.90
10468;DHT22;5281;48.878;9.394;2022-10-16T16:10:19;23.30;99.90
10468;DHT22;5281;48.878;9.394;2022-10-16T16:12:48;23.20;99.90